Brumley, Arkansas
Current Conditions -  °F | °C
As of 10:58 AM on Thursday 27 Nov 2014 (Local Time) from KLRF Reporting Station
Clear Clear  
Wind Chill: 38°   Ceiling: Unl
Heat Index: 43°   Visibility: 10mi
Dew Point: 27°   Wind: 8mph
Humidity: 53%   Direction: 300°WNW
Pressure: 30.55"   Gusts: NA
Location:  35.0822°N, 92.366°W
Report Text: KLRF 271658Z AUTO 30007KT 10SM CLR 06/M03 A3055 RMK AO2 SLP350 T00601030 $
Loading
Personal Weather Stations






























Interactive Weather Map New forecast layout! Learn more

10-Day Weather Forecast

Advertisements
Track Severe Weather on mobile